Latest Weather Observations for Tibooburra Airport

IDN60801

Issued at 2:23 pm EDT Tuesday 18 January 2022 (issued every 10 minutes, with the page automatically refreshed every 10 minutes)

About weather observations | Map of weather stations | Latest weather observations for NSW | Other Formats
Station Details ID: 046126 Name: TIBOOBURRA AIRPORT Lat: -29.44 Lon: 142.06 Height: 176.4 m
Data from the previous 72 hours. | See also: Recent months at Tibooburra Airport
Date/Time
EDT
Temp
°C
App
Temp
°C
Dew
Point
°C
Rel
Hum
%
Delta-T
°C
Wind Press
QNH
hPa
Press
MSL
hPa
Rain since
9am
mm
Dir  Spd
km/h
Gust
km/h
Spd
kts
Gust
kts
18/02:01pm 33.6 29.1 12.6 28 12.6 SE 28 48 15 26 1008.5 1007.2 0.0
18/02:00pm 33.6 29.1 12.6 28 12.7 SE 28 37 15 20 1008.6 1007.3 0.0
18/01:30pm 33.8 29.9 12.2 27 12.9 SE 24 35 13 19 1009.2 1007.9 0.0
18/01:01pm 34.6 30.0 12.3 26 13.4 SE 28 48 15 26 1009.0 1007.7 0.0
18/01:00pm 34.2 30.0 12.5 27 13.1 SE 26 48 14 26 1009.0 1007.7 0.0
18/12:33pm 33.9 28.5 12.3 27 13.0 SE 32 50 17 27 1008.9 1007.6 0.0
18/12:30pm 32.6 27.1 12.3 29 12.1 SE 33 46 18 25 1009.0 1007.7 0.0
18/12:00pm 33.0 27.6 12.1 28 12.5 SE 32 48 17 26 1009.1 1007.8 0.0
18/11:30am 32.9 26.7 12.5 29 12.2 SE 37 57 20 31 1009.2 1007.9 0.0
18/11:09am 31.9 25.9 12.2 30 11.7 SE 35 54 19 29 1009.2 1007.9 0.0
18/11:00am 31.4 25.1 12.2 30 11.4 SE 37 48 20 26 1009.3 1008.0 0.0
18/10:30am 30.9 24.6 12.3 32 11.0 SE 37 52 20 28 1009.5 1008.2 0.0
18/10:00am 31.1 24.5 12.5 32 11.1 SE 39 48 21 26 1008.9 1007.6 0.0
18/09:30am 29.5 23.5 12.0 34 10.3 SE 35 46 19 25 1008.6 1007.3 0.0
18/09:00am 29.2 23.8 12.2 35 10.0 SE 32 43 17 23 1008.5 1007.2 0.0
18/08:30am 29.1 23.7 12.1 35 10.0 SE 32 43 17 23 1008.2 1006.9 0.0
18/08:00am 28.8 24.0 11.8 35 9.9 SE 28 39 15 21 1007.8 1006.5 0.0
18/07:30am 28.5 24.2 12.0 36 9.6 SE 26 35 14 19 1007.4 1006.1 0.0
18/07:00am 28.2 23.3 12.5 37 9.3 ESE 30 37 16 20 1006.5 1005.2 0.0
18/06:30am 28.1 23.9 12.5 38 9.2 ESE 26 37 14 20 1006.9 1005.6 0.0
18/06:00am 27.6 24.5 13.5 41 8.4 SSE 22 28 12 15 1007.2 1005.9 0.0
18/05:30am 28.8 23.9 11.4 34 10.1 ESE 28 33 15 18 1007.1 1005.8 0.0
18/05:00am 28.7 23.4 11.3 34 10.1 ESE 30 37 16 20 1006.6 1005.3 0.0
18/04:30am 28.7 22.5 11.3 34 10.1 ESE 35 46 19 25 1006.2 1004.9 0.0
18/04:02am 28.9 21.8 11.0 33 10.3 ESE 39 57 21 31 1005.9 1004.6 0.0
18/04:00am 28.8 21.3 10.9 33 10.3 ESE 41 57 22 31 1005.8 1004.5 0.0
18/03:30am 28.9 20.9 11.0 33 10.3 ESE 44 56 24 30 1006.1 1004.8 0.0
18/03:06am 28.9 20.5 11.0 33 10.3 ESE 46 65 25 35 1006.2 1004.9 0.0
18/03:00am 28.8 20.7 10.9 33 10.3 ESE 44 61 24 33 1006.0 1004.7 0.0
18/02:30am 29.0 20.6 11.1 33 10.3 ESE 46 61 25 33 1007.3 1006.0 0.0
18/02:00am 29.1 20.6 10.7 32 10.6 ESE 46 63 25 34 1006.9 1005.6 0.0
18/01:31am 29.4 20.9 10.5 31 10.8 ESE 46 65 25 35 1007.2 1005.9 0.0
18/01:30am 29.4 20.5 10.5 31 10.8 ESE 48 65 26 35 1007.2 1005.9 0.0
18/01:00am 29.5 20.2 10.6 31 10.9 ESE 50 63 27 34 1007.1 1005.8 0.0
18/12:30am 29.3 20.1 10.9 32 10.6 ESE 50 69 27 37 1007.0 1005.7 0.0
18/12:00am 29.2 19.4 11.3 33 10.4 SE 54 72 29 39 1007.3 1006.0 0.0
 
Date/Time
EDT
Temp
°C
App
Temp
°C
Dew
Point
°C
Rel
Hum
%
Delta-T
°C
Wind Press
QNH
hPa
Press
MSL
hPa
Rain since
9am
mm
Dir  Spd
km/h
Gust
km/h
Spd
kts
Gust
kts
17/11:30pm 29.5 19.6 11.1 32 10.6 ESE 54 72 29 39 1007.6 1006.3 0.0
17/11:22pm 29.5 20.0 11.1 32 10.6 ESE 52 72 28 39 1007.9 1006.6 0.0
17/11:00pm 29.9 21.4 10.5 30 11.2 SE 46 63 25 34 1009.1 1007.8 0.0
17/10:45pm 30.0 21.8 10.5 30 11.2 SE 44 63 24 34 1009.5 1008.2 0.0
17/10:30pm 30.6 22.1 10.5 29 11.6 SE 46 57 25 31 1009.6 1008.3 0.0
17/10:00pm 31.2 23.5 10.0 27 12.2 SSE 41 56 22 30 1009.9 1008.6 0.0
17/09:30pm 31.9 24.4 9.4 25 12.8 SSE 39 54 21 29 1009.6 1008.3 0.0
17/09:00pm 32.4 24.7 8.6 23 13.4 S 39 52 21 28 1009.3 1008.0 0.0
17/08:46pm 32.6 24.8 8.1 22 13.7 S 39 57 21 31 1009.2 1007.9 0.0
17/08:30pm 32.7 23.9 8.2 22 13.7 S 44 59 24 32 1008.8 1007.5 0.0
17/08:04pm 32.9 24.7 8.4 22 13.8 S 41 59 22 32 1008.2 1006.9 0.0
17/08:00pm 32.9 24.2 8.4 22 13.8 S 44 59 24 32 1008.1 1006.8 0.0
17/07:30pm 33.5 25.1 8.9 22 14.0 S 43 61 23 33 1007.5 1006.2 0.0
17/07:28pm 33.6 25.2 9.0 22 14.0 S 43 61 23 33 1007.5 1006.2 0.0
17/07:00pm 34.6 25.1 8.4 20 14.9 S 48 59 26 32 1006.9 1005.6 0.0
17/06:39pm 35.5 27.3 6.7 17 16.0 S 39 57 21 31 1006.5 1005.2 0.0
17/06:30pm 35.8 26.9 7.0 17 16.1 S 43 56 23 30 1006.3 1005.0 0.0
17/06:05pm 36.4 28.4 5.6 15 16.9 S 37 56 20 30 1006.1 1004.8 0.0
17/06:00pm 36.8 29.6 5.9 15 17.1 SSW 33 50 18 27 1006.1 1004.8 0.0
17/05:50pm 37.2 32.0 5.3 14 17.5 S 22 44 12 24 1006.1 1004.8 0.0
17/05:30pm 38.6 34.2 0.1 9 19.6 SSW 13 17 7 9 1005.6 1004.3 0.0
17/05:00pm 38.7 34.3 0.2 9 19.7 SSE 13 24 7 13 1005.4 1004.1 0.0
17/04:30pm 38.9 34.5 0.3 9 19.8 SSE 13 19 7 10 1005.3 1004.0 0.0
17/04:00pm 38.8 34.8 0.3 9 19.8 ESE 11 17 6 9 1005.3 1004.0 0.0
17/03:30pm 38.7 33.7 1.6 10 19.4 SE 17 22 9 12 1005.5 1004.2 0.0
17/03:00pm 38.6 32.7 1.6 10 19.3 ESE 22 32 12 17 1005.5 1004.2 0.0
17/02:30pm 38.8 32.9 1.7 10 19.4 ESE 22 30 12 16 1005.5 1004.2 0.0
17/02:00pm 39.2 33.3 2.0 10 19.6 ESE 22 32 12 17 1005.7 1004.4 0.0
17/01:30pm 38.6 32.1 2.9 11 19.0 ESE 26 35 14 19 1006.3 1005.0 0.0
17/01:00pm 39.1 32.7 3.3 11 19.3 SE 26 44 14 24 1006.8 1005.5 0.0
17/12:30pm 38.0 31.7 3.7 12 18.4 SE 26 39 14 21 1007.1 1005.8 0.0
17/12:00pm 37.9 31.6 5.8 14 17.8 SSE 28 39 15 21 1007.6 1006.3 0.0
17/11:30am 36.6 30.1 6.7 16 16.7 SSE 30 41 16 22 1007.7 1006.4 0.0
17/11:00am 35.5 28.9 7.6 18 15.7 SSE 32 41 17 22 1007.8 1006.5 0.0
17/10:30am 34.1 27.2 8.7 21 14.4 SSE 35 48 19 26 1008.1 1006.8 0.0
17/10:00am 32.2 25.0 9.1 24 13.1 SSE 37 46 20 25 1008.4 1007.1 0.0
17/09:30am 31.9 25.0 8.8 24 13.0 SSE 35 48 19 26 1008.5 1007.2 0.0
17/09:00am 31.3 25.0 8.9 25 12.6 S 32 41 17 22 1008.8 1007.5 0.0
17/08:30am 31.2 24.9 8.8 25 12.6 S 32 41 17 22 1009.1 1007.8 0.0
17/08:00am 31.8 25.7 8.1 23 13.2 S 30 41 16 22 1008.7 1007.4 0.0
17/07:30am 32.0 25.8 6.2 20 14.0 S 28 35 15 19 1007.7 1006.4 0.0
17/07:00am 31.5 26.7 5.8 20 13.8 SSW 20 26 11 14 1006.8 1005.5 0.0
17/06:30am 31.5 26.8 5.1 19 14.0 S 19 26 10 14 1006.1 1004.8 0.0
17/06:00am 31.6 27.4 5.9 20 13.8 S 17 22 9 12 1005.5 1004.2 0.0
17/05:30am 30.9 28.1 5.3 20 13.6 SSE 9 11 5 6 1005.1 1003.8 0.0
17/05:00am 30.5 28.0 5.0 20 13.5 SSE 7 9 4 5 1004.8 1003.4 0.0
17/04:30am 31.1 28.8 5.5 20 13.6 E 7 7 4 4 1004.3 1003.0 0.0
17/04:00am 31.4 28.6 5.0 19 14.0 E 9 13 5 7 1004.1 1002.8 0.0
17/03:30am 31.9 29.0 4.6 18 14.4 ENE 9 13 5 7 1004.3 1003.0 0.0
17/03:00am 32.8 28.4 4.6 17 15.0 ENE 17 20 9 11 1004.2 1002.9 0.0
17/02:30am 32.2 28.3 3.2 16 14.9 NE 13 17 7 9 1004.7 1003.3 0.0
17/02:00am 33.2 28.3 2.1 14 15.9 NE 17 19 9 10 1004.9 1003.5 0.0
17/01:30am 32.9 29.3 0.9 13 15.9 SE 9 11 5 6 1004.9 1003.5 0.0
17/01:00am 34.5 31.0 1.0 12 16.9 SSE 9 11 5 6 1004.7 1003.3 0.0
17/12:30am 35.1 30.7 0.2 11 17.4 S 13 17 7 9 1004.7 1003.3 0.0
17/12:00am 36.4 30.8 -0.1 10 18.4 SSW 19 26 10 14 1004.8 1003.4 0.0
 
Date/Time
EDT
Temp
°C
App
Temp
°C
Dew
Point
°C
Rel
Hum
%
Delta-T
°C
Wind Press
QNH
hPa
Press
MSL
hPa
Rain since
9am
mm
Dir  Spd
km/h
Gust
km/h
Spd
kts
Gust
kts
16/11:30pm 36.9 31.7 0.3 10 18.5 SSW 17 26 9 14 1004.6 1003.2 0.0
16/11:00pm 37.7 33.9 -0.6 9 19.3 SSE 9 11 5 6 1004.8 1003.4 0.0
16/10:30pm 37.8 33.3 -0.5 9 19.2 ESE 13 17 7 9 1004.5 1003.1 0.0
16/10:00pm 38.8 32.8 -1.3 8 20.1 NE 20 33 11 18 1003.6 1002.3 0.0
16/09:30pm 38.1 32.5 1.2 10 19.1 E 20 24 11 13 1003.1 1001.8 0.0
16/09:00pm 38.1 34.6 1.2 10 19.1 ESE 9 13 5 7 1002.8 1001.5 0.0
16/08:30pm 39.0 36.7 0.4 9 19.8 SSW 2 9 1 5 1002.5 1001.2 0.0
16/08:00pm 39.1 35.1 0.5 9 19.9 NE 11 20 6 11 1002.5 1001.2 0.0
16/07:30pm 41.1 35.7 -1.5 7 21.5 WSW 17 22 9 12 1002.1 1000.8 0.0
16/07:00pm 41.6 37.8 -1.1 7 21.8 N 9 15 5 8 1002.1 1000.8 0.0
16/06:30pm 41.8 37.3 -3.1 6 22.2 NNE 11 17 6 9 1001.8 1000.5 0.0
16/06:00pm 42.1 37.6 -2.9 6 22.5 NNE 11 17 6 9 1001.8 1000.5 0.0
16/05:30pm 42.1 36.5 -2.9 6 22.4 NE 17 26 9 14 1001.9 1000.6 0.0
16/05:00pm 42.1 37.3 -2.9 6 22.5 NE 13 22 7 12 1002.2 1000.9 0.0
16/04:30pm 41.6 35.6 -3.2 6 22.1 NNE 19 35 10 19 1002.8 1001.5 0.0
16/04:00pm 43.1 37.0 -2.2 6 23.0 NNE 20 32 11 17 1003.2 1001.9 0.0
16/03:30pm 41.9 35.7 -3.0 6 22.3 N 20 30 11 16 1003.6 1002.3 0.0
16/03:00pm 41.8 35.8 -3.1 6 22.3 NNE 19 30 10 16 1003.9 1002.6 0.0
16/02:30pm 42.0 36.4 -2.9 6 22.3 N 17 32 9 17 1004.3 1003.0 0.0
16/02:00pm 41.0 35.0 -1.6 7 21.5 NNE 20 30 11 16 1005.0 1003.6 0.0
16/01:30pm 40.3 33.8 -2.1 7 21.1 NE 22 33 12 18 1005.6 1004.3 0.0
16/01:00pm 40.1 33.3 -2.2 7 21.1 NE 24 32 13 17 1006.0 1004.7 0.0
16/12:30pm 38.9 32.2 -1.3 8 20.1 NE 24 35 13 19 1006.4 1005.1 0.0
16/12:00pm 39.0 32.3 -1.2 8 20.2 NE 24 35 13 19 1006.6 1005.3 0.0
16/11:30am 38.2 31.2 -0.2 9 19.4 NE 26 35 14 19 1006.8 1005.5 0.0
16/11:00am 36.8 29.9 0.2 10 18.5 ENE 26 35 14 19 1006.9 1005.6 0.0
16/10:30am 35.7 28.1 0.7 11 17.7 ENE 30 35 16 19 1006.9 1005.6 0.0
16/10:00am 34.7 26.8 1.1 12 17.0 ENE 32 39 17 21 1007.0 1005.7 0.0
16/09:30am 32.9 26.4 2.9 15 15.4 ENE 26 32 14 17 1007.0 1005.7 0.0
16/09:00am 30.9 25.0 3.8 18 14.0 E 24 32 13 17 1006.9 1005.6 0.0
16/08:30am 30.4 24.6 4.2 19 13.6 E 24 30 13 16 1006.7 1005.4 0.0
16/08:00am 28.3 24.5 5.8 24 11.9 E 15 17 8 9 1006.4 1005.1 0.0
16/07:30am 26.9 23.9 5.8 26 11.0 ENE 11 13 6 7 1006.3 1005.0 0.0
16/07:00am 26.1 22.3 5.7 27 10.6 E 15 19 8 10 1005.7 1004.4 0.0
16/06:30am 25.6 21.8 5.8 28 10.3 E 15 15 8 8 1005.5 1004.2 0.0
16/06:00am 25.4 21.9 5.6 28 10.2 E 13 15 7 8 1005.3 1004.0 0.0
16/05:30am 25.4 21.9 5.6 28 10.2 E 13 15 7 8 1005.1 1003.8 0.0
16/05:00am 26.1 21.9 5.7 27 10.6 E 17 17 9 9 1004.8 1003.4 0.0
16/04:30am 26.5 22.7 6.0 27 10.7 E 15 17 8 9 1004.7 1003.3 0.0
16/04:00am 26.8 23.0 5.7 26 11.0 E 15 17 8 9 1004.7 1003.3 0.0
16/03:30am 26.9 23.3 5.2 25 11.2 E 13 15 7 8 1004.8 1003.4 0.0
16/03:00am 27.4 23.4 5.1 24 11.6 ESE 15 17 8 9 1004.8 1003.4 0.0
16/02:30am 27.9 23.9 4.9 23 11.9 E 15 17 8 9 1005.0 1003.6 0.0
16/02:00am 28.5 24.5 4.7 22 12.3 E 15 15 8 8 1005.2 1003.9 0.0
16/01:30am 28.9 25.7 5.1 22 12.4 E 11 13 6 7 1005.4 1004.1 0.0
16/01:00am 29.2 25.5 4.6 21 12.8 E 13 15 7 8 1005.4 1004.1 0.0
16/12:30am 30.1 25.9 4.0 19 13.5 E 15 17 8 9 1005.5 1004.2 0.0
16/12:00am 30.8 26.6 3.8 18 14.0 ESE 15 19 8 10 1005.5 1004.2 0.0
 
Date/Time
EDT
Temp
°C
App
Temp
°C
Dew
Point
°C
Rel
Hum
%
Delta-T
°C
Wind Press
QNH
hPa
Press
MSL
hPa
Rain since
9am
mm
Dir  Spd
km/h
Gust
km/h
Spd
kts
Gust
kts
15/11:30pm 31.6 27.6 2.7 16 14.7 ESE 13 17 7 9 1005.4 1004.1 0.0
15/11:00pm 32.7 28.5 1.7 14 15.7 ESE 13 15 7 8 1005.6 1004.3 0.0
15/10:30pm 32.7 28.9 1.7 14 15.6 E 11 13 6 7 1005.0 1003.6 0.0
15/10:00pm 34.6 30.1 -0.1 11 17.3 SE 13 15 7 8 1005.0 1003.6 0.0
15/09:30pm 35.6 31.0 -0.7 10 17.9 SE 13 15 7 8 1005.2 1003.9 0.0
15/09:00pm 36.5 31.7 0.0 10 18.4 SE 15 19 8 10 1005.1 1003.8 0.0
15/08:30pm 37.3 32.7 -0.9 9 19.0 SSE 13 19 7 10 1004.6 1003.2 0.0
15/08:19pm 37.6 32.7 -0.6 9 19.1 SSE 15 20 8 11 1004.6 1003.2 0.0
15/08:00pm 37.9 33.0 -0.4 9 19.4 SE 15 19 8 10 1002.5 1001.2 0.0
15/07:30pm 38.7 33.5 0.2 9 19.7 SE 17 22 9 12 1003.4 1002.1 0.0
15/07:29pm 38.8 33.4 -1.3 8 20.0 SE 17 26 9 14 1003.6 1002.3 0.0
15/07:16pm 39.2 33.5 -1.1 8 20.2 SSE 19 30 10 16 1006.1 1004.8 0.0
15/07:00pm 39.4 34.1 -0.9 8 20.4 SE 17 39 9 21 1003.7 1002.4 0.0
15/06:30pm 39.5 34.2 -0.8 8 20.4 SSW 17 24 9 13 1003.5 1002.2 0.0
15/06:00pm 39.9 34.6 -0.5 8 20.6 S 17 28 9 15 1003.5 1002.2 0.0
15/05:30pm 39.5 35.7 -0.8 8 20.4 SSE 9 24 5 13 1003.7 1002.4 0.0
15/05:00pm 39.1 33.7 -1.1 8 20.2 SSW 17 28 9 15 1003.8 1002.5 0.0
15/04:30pm 39.1 34.1 -1.1 8 20.2 SW 15 28 8 15 1004.0 1002.7 0.0
15/04:00pm 38.4 33.7 -1.6 8 19.9 S 13 28 7 15 1004.2 1002.9 0.0
15/03:30pm 39.6 34.7 -0.8 8 20.4 SW 15 24 8 13 1004.7 1003.3 0.0
15/03:00pm 39.2 34.6 -1.1 8 20.3 SSW 13 33 7 18 1004.8 1003.4 0.0
15/02:30pm 38.4 33.3 -1.6 8 19.8 SSE 15 24 8 13 1005.2 1003.9 0.0

Other formats

Comma delimited format used in spreadsheet applications
http://www.bom.gov.au/fwo/IDN60801/IDN60801.95485.axf

JavaScript Object Notation format (JSON) in row-major order
http://www.bom.gov.au/fwo/IDN60801/IDN60801.95485.json

Data quality

Most of these data are generated automatically and are frequently updated. Quality checks on data are not normally performed. It is possible for incorrect values to appear. Refer to information at About Latest Weather Observations and please check the disclaimer before using these data.